sensor_id;sensor_type;location;lat;lon;timestamp;pressure;altitude;pressure_sealevel;temperature;humidity
72086;BME280;64750;52.134;5.424;2023-02-28T00:00:22;103401.53;;;3.27;72.25
72086;BME280;64750;52.134;5.424;2023-02-28T00:02:48;103403.25;;;3.25;72.30
72086;BME280;64750;52.134;5.424;2023-02-28T00:05:18;103399.78;;;3.26;73.07
72086;BME280;64750;52.134;5.424;2023-02-28T00:07:45;103405.88;;;3.27;73.09
72086;BME280;64750;52.134;5.424;2023-02-28T00:10:14;103405.00;;;3.28;73.00
72086;BME280;64750;52.134;5.424;2023-02-28T00:12:41;103418.03;;;3.30;72.83
72086;BME280;64750;52.134;5.424;2023-02-28T00:15:09;103408.50;;;3.32;72.82
72086;BME280;64750;52.134;5.424;2023-02-28T00:17:36;103415.44;;;3.30;72.83
72086;BME280;64750;52.134;5.424;2023-02-28T00:20:04;103412.78;;;3.26;73.12
72086;BME280;64750;52.134;5.424;2023-02-28T00:22:34;103405.03;;;3.30;73.55
72086;BME280;64750;52.134;5.424;2023-02-28T00:25:00;103411.16;;;3.35;73.28
72086;BME280;64750;52.134;5.424;2023-02-28T00:27:27;103416.31;;;3.33;72.65
72086;BME280;64750;52.134;5.424;2023-02-28T00:29:53;103411.13;;;3.33;73.34
72086;BME280;64750;52.134;5.424;2023-02-28T00:32:20;103412.03;;;3.37;73.00
72086;BME280;64750;52.134;5.424;2023-02-28T00:34:46;103406.00;;;3.39;73.54
72086;BME280;64750;52.134;5.424;2023-02-28T00:37:13;103403.47;;;3.44;72.90
72086;BME280;64750;52.134;5.424;2023-02-28T00:39:39;103408.69;;;3.47;73.38
72086;BME280;64750;52.134;5.424;2023-02-28T00:42:07;103402.63;;;3.45;73.42
72086;BME280;64750;52.134;5.424;2023-02-28T00:44:34;103407.81;;;3.45;72.92
72086;BME280;64750;52.134;5.424;2023-02-28T00:47:00;103407.78;;;3.43;73.41
72086;BME280;64750;52.134;5.424;2023-02-28T00:49:27;103407.81;;;3.45;73.49
72086;BME280;64750;52.134;5.424;2023-02-28T00:51:55;103398.25;;;3.44;73.81
72086;BME280;64750;52.134;5.424;2023-02-28T00:54:22;103403.47;;;3.44;73.75
72086;BME280;64750;52.134;5.424;2023-02-28T00:56:49;103403.41;;;3.41;73.33
72086;BME280;64750;52.134;5.424;2023-02-28T00:59:17;103408.63;;;3.41;73.59
72086;BME280;64750;52.134;5.424;2023-02-28T01:01:45;103407.72;;;3.37;73.66
72086;BME280;64750;52.134;5.424;2023-02-28T01:04:13;103403.41;;;3.39;74.01
72086;BME280;64750;52.134;5.424;2023-02-28T01:06:40;103409.50;;;3.43;74.16
72086;BME280;64750;52.134;5.424;2023-02-28T01:09:07;103409.50;;;3.43;73.94
72086;BME280;64750;52.134;5.424;2023-02-28T01:11:34;103409.53;;;3.44;74.32
72086;BME280;64750;52.134;5.424;2023-02-28T01:14:01;103407.81;;;3.45;73.77
72086;BME280;64750;52.134;5.424;2023-02-28T01:16:28;103405.22;;;3.45;73.82
72086;BME280;64750;52.134;5.424;2023-02-28T01:18:55;103406.94;;;3.46;73.68
72086;BME280;64750;52.134;5.424;2023-02-28T01:21:21;103406.06;;;3.45;73.48
72086;BME280;64750;52.134;5.424;2023-02-28T01:23:48;103410.44;;;3.48;73.90
72086;BME280;64750;52.134;5.424;2023-02-28T01:26:21;103398.28;;;3.49;74.04
72086;BME280;64750;52.134;5.424;2023-02-28T01:28:49;103394.84;;;3.51;74.31
72086;BME280;64750;52.134;5.424;2023-02-28T01:31:16;103394.06;;;3.54;73.60
72086;BME280;64750;52.134;5.424;2023-02-28T01:33:44;103400.06;;;3.51;74.16
72086;BME280;64750;52.134;5.424;2023-02-28T01:36:17;103400.97;;;3.53;73.67
72086;BME280;64750;52.134;5.424;2023-02-28T01:38:44;103396.59;;;3.49;74.07
72086;BME280;64750;52.134;5.424;2023-02-28T01:41:26;103396.59;;;3.49;73.91
72086;BME280;64750;52.134;5.424;2023-02-28T01:46:35;103401.81;;;3.52;74.39
72086;BME280;64750;52.134;5.424;2023-02-28T01:49:08;103384.44;;;3.51;74.15
72086;BME280;64750;52.134;5.424;2023-02-28T01:51:41;103382.75;;;3.50;74.35
72086;BME280;64750;52.134;5.424;2023-02-28T01:54:15;103383.59;;;3.49;74.21
72086;BME280;64750;52.134;5.424;2023-02-28T01:56:47;103386.97;;;3.43;74.36
72086;BME280;64750;52.134;5.424;2023-02-28T01:59:23;103383.56;;;3.48;74.52
72086;BME280;64750;52.134;5.424;2023-02-28T02:01:50;103380.97;;;3.49;74.75
72086;BME280;64750;52.134;5.424;2023-02-28T02:04:17;103377.53;;;3.52;74.11
72086;BME280;64750;52.134;5.424;2023-02-28T02:06:47;103377.53;;;3.52;74.15
72086;BME280;64750;52.134;5.424;2023-02-28T02:09:14;103373.19;;;3.51;74.64
72086;BME280;64750;52.134;5.424;2023-02-28T02:11:42;103371.41;;;3.45;74.33
72086;BME280;64750;52.134;5.424;2023-02-28T02:14:16;103373.03;;;3.37;74.40
72086;BME280;64750;52.134;5.424;2023-02-28T02:25:16;103367.94;;;3.46;74.82
72086;BME280;64750;52.134;5.424;2023-02-28T02:38:52;103374.81;;;3.39;75.13
72086;BME280;64750;52.134;5.424;2023-02-28T02:41:25;103369.66;;;3.44;75.31
72086;BME280;64750;52.134;5.424;2023-02-28T02:47:08;103380.91;;;3.40;75.11
72086;BME280;64750;52.134;5.424;2023-02-28T02:49:38;103380.91;;;3.43;75.83
72086;BME280;64750;52.134;5.424;2023-02-28T02:52:10;103373.13;;;3.43;75.69
72086;BME280;64750;52.134;5.424;2023-02-28T02:54:41;103369.69;;;3.45;75.36
72086;BME280;64750;52.134;5.424;2023-02-28T02:57:14;103372.28;;;3.47;75.95
72086;BME280;64750;52.134;5.424;2023-02-28T02:59:43;103372.25;;;3.44;75.67
72086;BME280;64750;52.134;5.424;2023-02-28T03:02:12;103374.03;;;3.45;76.10
72086;BME280;64750;52.134;5.424;2023-02-28T03:04:43;103369.59;;;3.39;76.20
72086;BME280;64750;52.134;5.424;2023-02-28T03:07:12;103375.63;;;3.34;76.31
72086;BME280;64750;52.134;5.424;2023-02-28T03:09:38;103379.13;;;3.37;76.92
72086;BME280;64750;52.134;5.424;2023-02-28T03:12:09;103376.53;;;3.37;76.48
72086;BME280;64750;52.134;5.424;2023-02-28T03:23:03;103369.69;;;3.45;76.62
72086;BME280;64750;52.134;5.424;2023-02-28T03:25:22;103378.41;;;3.51;77.03
72086;BME280;64750;52.134;5.424;2023-02-28T03:30:36;103377.53;;;3.50;76.88
72086;BME280;64750;52.134;5.424;2023-02-28T03:33:14;103379.16;;;3.42;77.14
72086;BME280;64750;52.134;5.424;2023-02-28T03:35:52;103375.72;;;3.43;77.30
72086;BME280;64750;52.134;5.424;2023-02-28T03:38:28;103380.91;;;3.40;77.41
72086;BME280;64750;52.134;5.424;2023-02-28T03:41:04;103378.25;;;3.37;77.24
72086;BME280;64750;52.134;5.424;2023-02-28T03:43:35;103379.94;;;3.33;77.42
72086;BME280;64750;52.134;5.424;2023-02-28T03:46:08;103385.19;;;3.39;77.58
72086;BME280;64750;52.134;5.424;2023-02-28T03:48:49;103384.28;;;3.36;77.43
72086;BME280;64750;52.134;5.424;2023-02-28T03:51:19;103387.72;;;3.33;77.54
72086;BME280;64750;52.134;5.424;2023-02-28T03:53:52;103393.81;;;3.32;77.72
72086;BME280;64750;52.134;5.424;2023-02-28T03:56:26;103402.47;;;3.33;77.79
72086;BME280;64750;52.134;5.424;2023-02-28T03:59:00;103401.56;;;3.31;77.15
72086;BME280;64750;52.134;5.424;2023-02-28T04:01:41;103395.56;;;3.35;77.28
72086;BME280;64750;52.134;5.424;2023-02-28T04:04:09;103392.91;;;3.28;77.04
72086;BME280;64750;52.134;5.424;2023-02-28T04:06:37;103387.78;;;3.35;76.65
72086;BME280;64750;52.134;5.424;2023-02-28T04:09:05;103388.63;;;3.35;77.10
72086;BME280;64750;52.134;5.424;2023-02-28T04:11:34;103393.91;;;3.40;76.42
72086;BME280;64750;52.134;5.424;2023-02-28T04:14:02;103396.50;;;3.41;76.06
72086;BME280;64750;52.134;5.424;2023-02-28T04:16:30;103392.16;;;3.39;75.38
72086;BME280;64750;52.134;5.424;2023-02-28T04:19:03;103400.81;;;3.41;74.66
72086;BME280;64750;52.134;5.424;2023-02-28T04:21:36;103391.31;;;3.43;73.81
72086;BME280;64750;52.134;5.424;2023-02-28T04:24:04;103402.63;;;3.45;73.64
72086;BME280;64750;52.134;5.424;2023-02-28T04:26:31;103399.13;;;3.44;72.20
72086;BME280;64750;52.134;5.424;2023-02-28T04:28:58;103396.50;;;3.43;71.85
72086;BME280;64750;52.134;5.424;2023-02-28T04:31:25;103393.91;;;3.40;70.73
72086;BME280;64750;52.134;5.424;2023-02-28T04:33:52;103400.78;;;3.38;69.62
72086;BME280;64750;52.134;5.424;2023-02-28T04:36:18;103409.50;;;3.40;69.46
72086;BME280;64750;52.134;5.424;2023-02-28T04:38:45;103405.13;;;3.39;69.50
72086;BME280;64750;52.134;5.424;2023-02-28T04:41:13;103403.41;;;3.41;69.03
72086;BME280;64750;52.134;5.424;2023-02-28T04:43:39;103410.34;;;3.39;69.05
72086;BME280;64750;52.134;5.424;2023-02-28T04:46:06;103411.19;;;3.38;68.52
72086;BME280;64750;52.134;5.424;2023-02-28T04:48:35;103411.19;;;3.39;68.82
72086;BME280;64750;52.134;5.424;2023-02-28T04:51:13;103400.78;;;3.38;68.89
72086;BME280;64750;52.134;5.424;2023-02-28T04:53:41;103400.78;;;3.36;69.04
72086;BME280;64750;52.134;5.424;2023-02-28T04:56:11;103401.63;;;3.37;68.72
72086;BME280;64750;52.134;5.424;2023-02-28T04:58:38;103400.72;;;3.33;68.54
72086;BME280;64750;52.134;5.424;2023-02-28T05:01:17;103411.13;;;3.32;69.41
72086;BME280;64750;52.134;5.424;2023-02-28T05:03:44;103410.25;;;3.33;69.43
72086;BME280;64750;52.134;5.424;2023-02-28T05:06:12;103407.66;;;3.33;69.29
72086;BME280;64750;52.134;5.424;2023-02-28T05:08:39;103401.56;;;3.29;69.76
72086;BME280;64750;52.134;5.424;2023-02-28T05:11:23;103395.44;;;3.24;69.98
72086;BME280;64750;52.134;5.424;2023-02-28T05:13:51;103398.88;;;3.23;70.80
72086;BME280;64750;52.134;5.424;2023-02-28T05:16:18;103406.66;;;3.21;70.69
72086;BME280;64750;52.134;5.424;2023-02-28T05:18:45;103406.66;;;3.20;71.26
72086;BME280;64750;52.134;5.424;2023-02-28T05:21:33;103411.84;;;3.20;71.66
72086;BME280;64750;52.134;5.424;2023-02-28T05:24:02;103411.84;;;3.18;72.28
72086;BME280;64750;52.134;5.424;2023-02-28T05:26:30;103415.31;;;3.20;72.48
72086;BME280;64750;52.134;5.424;2023-02-28T05:28:57;103419.63;;;3.17;72.18
72086;BME280;64750;52.134;5.424;2023-02-28T05:31:23;103418.72;;;3.15;72.12
72086;BME280;64750;52.134;5.424;2023-02-28T05:33:50;103418.72;;;3.16;72.63
72086;BME280;64750;52.134;5.424;2023-02-28T05:36:17;103414.41;;;3.17;73.00
72086;BME280;64750;52.134;5.424;2023-02-28T05:38:46;103422.16;;;3.12;72.45
72086;BME280;64750;52.134;5.424;2023-02-28T05:41:13;103411.75;;;3.10;72.67
72086;BME280;64750;52.134;5.424;2023-02-28T05:43:40;103411.72;;;3.09;72.97
72086;BME280;64750;52.134;5.424;2023-02-28T05:46:08;103413.41;;;3.05;73.45
72086;BME280;64750;52.134;5.424;2023-02-28T05:48:37;103409.06;;;3.04;73.79
72086;BME280;64750;52.134;5.424;2023-02-28T05:51:05;103413.38;;;3.04;74.23
72086;BME280;64750;52.134;5.424;2023-02-28T05:53:32;103416.78;;;3.01;73.92
72086;BME280;64750;52.134;5.424;2023-02-28T05:55:59;103426.22;;;2.93;74.35
72086;BME280;64750;52.134;5.424;2023-02-28T05:58:26;103418.31;;;2.82;74.96
72086;BME280;64750;52.134;5.424;2023-02-28T06:00:59;103421.69;;;2.78;74.45
72086;BME280;64750;52.134;5.424;2023-02-28T06:03:26;103417.28;;;2.71;75.81
72086;BME280;64750;52.134;5.424;2023-02-28T06:05:53;103414.66;;;2.69;75.59
72086;BME280;64750;52.134;5.424;2023-02-28T06:08:20;103420.63;;;2.63;76.04
72086;BME280;64750;52.134;5.424;2023-02-28T06:10:46;103416.16;;;2.56;76.40
72086;BME280;64750;52.134;5.424;2023-02-28T06:13:13;103414.38;;;2.52;76.29
72086;BME280;64750;52.134;5.424;2023-02-28T06:15:39;103418.50;;;2.39;76.27
72086;BME280;64750;52.134;5.424;2023-02-28T06:18:06;103418.41;;;2.32;77.20
72086;BME280;64750;52.134;5.424;2023-02-28T06:20:33;103419.19;;;2.27;77.74
72086;BME280;64750;52.134;5.424;2023-02-28T06:23:00;103406.31;;;2.32;77.68
72086;BME280;64750;52.134;5.424;2023-02-28T06:25:27;103405.53;;;2.38;77.76
72086;BME280;64750;52.134;5.424;2023-02-28T06:27:54;103409.03;;;2.40;77.85
72086;BME280;64750;52.134;5.424;2023-02-28T06:30:21;103399.50;;;2.39;78.24
72086;BME280;64750;52.134;5.424;2023-02-28T06:32:51;103410.59;;;2.32;78.28
72086;BME280;64750;52.134;5.424;2023-02-28T06:35:18;103422.75;;;2.33;78.35
72086;BME280;64750;52.134;5.424;2023-02-28T06:37:45;103409.78;;;2.33;78.30
72086;BME280;64750;52.134;5.424;2023-02-28T06:40:13;103422.59;;;2.23;79.13
72086;BME280;64750;52.134;5.424;2023-02-28T06:42:40;103419.13;;;2.23;79.90
72086;BME280;64750;52.134;5.424;2023-02-28T06:45:07;103412.94;;;2.15;79.81
72086;BME280;64750;52.134;5.424;2023-02-28T06:47:37;103420.72;;;2.13;79.49
72086;BME280;64750;52.134;5.424;2023-02-28T06:50:04;103412.13;;;2.17;80.26
72086;BME280;64750;52.134;5.424;2023-02-28T06:52:31;103410.34;;;2.15;80.40
72086;BME280;64750;52.134;5.424;2023-02-28T06:54:58;103416.50;;;2.21;80.33
72086;BME280;64750;52.134;5.424;2023-02-28T06:57:29;103419.34;;;2.37;80.76
72086;BME280;64750;52.134;5.424;2023-02-28T07:00:00;103425.56;;;2.46;80.75
72086;BME280;64750;52.134;5.424;2023-02-28T07:02:27;103427.34;;;2.51;80.23
72086;BME280;64750;52.134;5.424;2023-02-28T07:04:53;103429.97;;;2.52;80.24
72086;BME280;64750;52.134;5.424;2023-02-28T07:07:20;103432.56;;;2.54;80.39
72086;BME280;64750;52.134;5.424;2023-02-28T07:09:47;103423.22;;;2.63;80.51
72086;BME280;64750;52.134;5.424;2023-02-28T07:12:13;103429.41;;;2.72;80.07
72086;BME280;64750;52.134;5.424;2023-02-28T07:14:39;103431.19;;;2.76;79.39
72086;BME280;64750;52.134;5.424;2023-02-28T07:17:10;103428.41;;;2.65;79.81
72086;BME280;64750;52.134;5.424;2023-02-28T07:19:39;103425.91;;;2.70;79.90
72086;BME280;64750;52.134;5.424;2023-02-28T07:22:06;103424.97;;;2.66;79.48
72086;BME280;64750;52.134;5.424;2023-02-28T07:24:33;103428.50;;;2.70;80.23
72086;BME280;64750;52.134;5.424;2023-02-28T07:27:00;103435.47;;;2.74;79.53
72086;BME280;64750;52.134;5.424;2023-02-28T07:29:27;103444.19;;;2.76;79.68
72086;BME280;64750;52.134;5.424;2023-02-28T07:31:55;103435.44;;;2.71;79.77
72086;BME280;64750;52.134;5.424;2023-02-28T07:34:22;103430.06;;;2.58;79.89
72086;BME280;64750;52.134;5.424;2023-02-28T07:36:49;103434.28;;;2.52;80.08
72086;BME280;64750;52.134;5.424;2023-02-28T07:39:21;103431.75;;;2.56;79.98
72086;BME280;64750;52.134;5.424;2023-02-28T07:41:47;103431.84;;;2.62;80.20
72086;BME280;64750;52.134;5.424;2023-02-28T07:44:14;103450.88;;;2.61;80.67
72086;BME280;64750;52.134;5.424;2023-02-28T07:46:41;103444.09;;;2.70;80.37
72086;BME280;64750;52.134;5.424;2023-02-28T07:49:07;103448.44;;;2.72;80.22
72086;BME280;64750;52.134;5.424;2023-02-28T07:51:34;103446.66;;;2.68;79.95
72086;BME280;64750;52.134;5.424;2023-02-28T07:54:00;103447.63;;;2.75;80.08
72086;BME280;64750;52.134;5.424;2023-02-28T07:56:27;103446.78;;;2.77;80.39
72086;BME280;64750;52.134;5.424;2023-02-28T07:58:54;103440.63;;;2.71;80.10
72086;BME280;64750;52.134;5.424;2023-02-28T08:01:20;103438.03;;;2.71;80.07
72086;BME280;64750;52.134;5.424;2023-02-28T08:03:47;103444.19;;;2.76;80.73
72086;BME280;64750;52.134;5.424;2023-02-28T08:06:20;103452.03;;;2.81;80.32
72086;BME280;64750;52.134;5.424;2023-02-28T08:08:48;103465.91;;;2.83;80.39
72086;BME280;64750;52.134;5.424;2023-02-28T08:11:15;103467.72;;;2.88;80.51
72086;BME280;64750;52.134;5.424;2023-02-28T08:13:42;103464.28;;;2.91;80.20
72086;BME280;64750;52.134;5.424;2023-02-28T08:16:10;103456.53;;;2.92;80.01
72086;BME280;64750;52.134;5.424;2023-02-28T08:18:37;103473.91;;;2.97;79.75
72086;BME280;64750;52.134;5.424;2023-02-28T08:21:09;103470.47;;;2.98;79.77
72086;BME280;64750;52.134;5.424;2023-02-28T08:23:36;103471.31;;;2.98;80.02
72086;BME280;64750;52.134;5.424;2023-02-28T08:26:03;103471.28;;;2.95;79.46
72086;BME280;64750;52.134;5.424;2023-02-28T08:28:30;103463.53;;;2.97;79.68
72086;BME280;64750;52.134;5.424;2023-02-28T08:30:57;103461.84;;;3.02;79.29
72086;BME280;64750;52.134;5.424;2023-02-28T08:33:25;103466.22;;;3.04;78.95
72086;BME280;64750;52.134;5.424;2023-02-28T08:35:53;103463.66;;;3.07;78.30
72086;BME280;64750;52.134;5.424;2023-02-28T08:38:20;103464.47;;;3.05;78.57
72086;BME280;64750;52.134;5.424;2023-02-28T08:40:47;103461.91;;;3.06;78.19
72086;BME280;64750;52.134;5.424;2023-02-28T08:43:13;103465.41;;;3.08;77.69
72086;BME280;64750;52.134;5.424;2023-02-28T08:45:40;103455.03;;;3.10;77.33
72086;BME280;64750;52.134;5.424;2023-02-28T08:48:06;103459.34;;;3.09;76.91
72086;BME280;64750;52.134;5.424;2023-02-28T08:50:33;103456.84;;;3.14;76.61
72086;BME280;64750;52.134;5.424;2023-02-28T08:52:59;103455.94;;;3.14;75.40
72086;BME280;64750;52.134;5.424;2023-02-28T08:55:26;103456.84;;;3.14;74.78
72086;BME280;64750;52.134;5.424;2023-02-28T08:57:52;103455.09;;;3.15;74.64
72086;BME280;64750;52.134;5.424;2023-02-28T09:00:19;103462.91;;;3.16;74.09
72086;BME280;64750;52.134;5.424;2023-02-28T09:02:45;103458.59;;;3.17;73.22
72086;BME280;64750;52.134;5.424;2023-02-28T09:05:12;103458.63;;;3.18;72.95
72086;BME280;64750;52.134;5.424;2023-02-28T09:07:38;103452.59;;;3.21;72.83
72086;BME280;64750;52.134;5.424;2023-02-28T09:10:05;103458.66;;;3.23;72.07
72086;BME280;64750;52.134;5.424;2023-02-28T09:12:33;103448.31;;;3.27;72.52
72086;BME280;64750;52.134;5.424;2023-02-28T09:15:01;103458.81;;;3.34;71.57
72086;BME280;64750;52.134;5.424;2023-02-28T09:17:28;103455.38;;;3.38;70.83
72086;BME280;64750;52.134;5.424;2023-02-28T09:19:56;103455.44;;;3.42;69.88
72086;BME280;64750;52.134;5.424;2023-02-28T09:22:23;103459.81;;;3.47;69.74
72086;BME280;64750;52.134;5.424;2023-02-28T09:24:49;103457.25;;;3.50;69.21
72086;BME280;64750;52.134;5.424;2023-02-28T09:27:16;103458.16;;;3.52;67.65
72086;BME280;64750;52.134;5.424;2023-02-28T09:29:42;103460.78;;;3.55;66.58
72086;BME280;64750;52.134;5.424;2023-02-28T09:32:09;103448.66;;;3.54;64.79
72086;BME280;64750;52.134;5.424;2023-02-28T09:34:35;103450.41;;;3.56;64.62
72086;BME280;64750;52.134;5.424;2023-02-28T09:37:03;103453.88;;;3.57;64.59
72086;BME280;64750;52.134;5.424;2023-02-28T09:39:29;103459.09;;;3.58;62.97
72086;BME280;64750;52.134;5.424;2023-02-28T09:41:56;103465.22;;;3.65;62.53
72086;BME280;64750;52.134;5.424;2023-02-28T09:44:36;103457.47;;;3.67;62.16
72086;BME280;64750;52.134;5.424;2023-02-28T09:47:08;103463.53;;;3.67;61.13
72086;BME280;64750;52.134;5.424;2023-02-28T09:49:42;103469.63;;;3.69;60.57
72086;BME280;64750;52.134;5.424;2023-02-28T09:52:20;103467.88;;;3.67;58.63
72086;BME280;64750;52.134;5.424;2023-02-28T09:54:47;103466.97;;;3.66;58.45
72086;BME280;64750;52.134;5.424;2023-02-28T10:00:07;103468.78;;;3.72;57.97
72086;BME280;64750;52.134;5.424;2023-02-28T10:03:03;103467.13;;;3.77;58.34
72086;BME280;64750;52.134;5.424;2023-02-28T10:05:39;103461.09;;;3.81;57.65
72086;BME280;64750;52.134;5.424;2023-02-28T10:08:16;103464.59;;;3.85;57.03
72086;BME280;64750;52.134;5.424;2023-02-28T10:10:58;103463.75;;;3.87;57.43
72086;BME280;64750;52.134;5.424;2023-02-28T10:13:33;103452.50;;;3.91;57.15
72086;BME280;64750;52.134;5.424;2023-02-28T10:18:51;103443.06;;;4.01;57.51
72086;BME280;64750;52.134;5.424;2023-02-28T10:21:26;103444.84;;;4.05;57.33
72086;BME280;64750;52.134;5.424;2023-02-28T10:24:02;103443.16;;;4.09;55.94
72086;BME280;64750;52.134;5.424;2023-02-28T10:26:31;103438.78;;;4.08;55.53
72086;BME280;64750;52.134;5.424;2023-02-28T10:28:58;103437.06;;;4.10;55.88
72086;BME280;64750;52.134;5.424;2023-02-28T10:31:24;103440.56;;;4.15;55.70
72086;BME280;64750;52.134;5.424;2023-02-28T10:33:51;103447.59;;;4.25;54.78
72086;BME280;64750;52.134;5.424;2023-02-28T10:36:21;103433.78;;;4.33;53.93
72086;BME280;64750;52.134;5.424;2023-02-28T10:38:48;103449.47;;;4.42;55.06
72086;BME280;64750;52.134;5.424;2023-02-28T10:41:28;103437.41;;;4.53;55.02
72086;BME280;64750;52.134;5.424;2023-02-28T10:44:15;103437.44;;;4.59;52.19
72086;BME280;64750;52.134;5.424;2023-02-28T10:46:45;103441.75;;;4.56;53.44
72086;BME280;64750;52.134;5.424;2023-02-28T10:49:21;103431.34;;;4.56;53.90
72086;BME280;64750;52.134;5.424;2023-02-28T10:51:52;103438.28;;;4.55;53.68
72086;BME280;64750;52.134;5.424;2023-02-28T10:54:23;103431.34;;;4.56;54.17
72086;BME280;64750;52.134;5.424;2023-02-28T10:57:23;103433.09;;;4.58;52.86
72086;BME280;64750;52.134;5.424;2023-02-28T11:03:01;103417.50;;;4.66;51.75
72086;BME280;64750;52.134;5.424;2023-02-28T11:05:31;103420.13;;;4.65;50.45
72086;BME280;64750;52.134;5.424;2023-02-28T11:08:15;103410.56;;;4.65;52.36
72086;BME280;64750;52.134;5.424;2023-02-28T11:10:54;103414.06;;;4.69;52.84
72086;BME280;64750;52.134;5.424;2023-02-28T11:13:27;103414.94;;;4.71;50.30
72086;BME280;64750;52.134;5.424;2023-02-28T11:15:57;103400.19;;;4.71;52.10
72086;BME280;64750;52.134;5.424;2023-02-28T11:21:04;103396.75;;;4.77;51.01
72086;BME280;64750;52.134;5.424;2023-02-28T11:23:35;103403.72;;;4.83;51.71
72086;BME280;64750;52.134;5.424;2023-02-28T11:26:03;103402.00;;;4.85;51.24
72086;BME280;64750;52.134;5.424;2023-02-28T11:28:32;103399.41;;;4.86;52.65
72086;BME280;64750;52.134;5.424;2023-02-28T11:31:03;103397.69;;;4.90;50.44
72086;BME280;64750;52.134;5.424;2023-02-28T11:36:21;103393.38;;;4.98;51.88
72086;BME280;64750;52.134;5.424;2023-02-28T11:38:52;103382.09;;;5.01;52.44
72086;BME280;64750;52.134;5.424;2023-02-28T11:41:39;103383.84;;;5.03;52.19
72086;BME280;64750;52.134;5.424;2023-02-28T11:46:57;103381.28;;;5.14;51.76
72086;BME280;64750;52.134;5.424;2023-02-28T11:58:05;103381.34;;;5.28;49.45
72086;BME280;64750;52.134;5.424;2023-02-28T12:04:00;103370.88;;;5.25;50.41
72086;BME280;64750;52.134;5.424;2023-02-28T12:06:33;103370.00;;;5.24;51.40
72086;BME280;64750;52.134;5.424;2023-02-28T12:09:24;103361.31;;;5.25;51.02
72086;BME280;64750;52.134;5.424;2023-02-28T12:15:00;103367.44;;;5.31;51.54
72086;BME280;64750;52.134;5.424;2023-02-28T12:20:35;103364.81;;;5.34;50.92
72086;BME280;64750;52.134;5.424;2023-02-28T12:28:42;103357.00;;;5.43;51.27
72086;BME280;64750;52.134;5.424;2023-02-28T12:31:17;103346.59;;;5.48;48.37
72086;BME280;64750;52.134;5.424;2023-02-28T12:33:47;103345.69;;;5.47;49.31
72086;BME280;64750;52.134;5.424;2023-02-28T12:36:19;103346.59;;;5.48;49.61
72086;BME280;64750;52.134;5.424;2023-02-28T12:38:49;103345.72;;;5.49;48.98
72086;BME280;64750;52.134;5.424;2023-02-28T12:41:21;103350.94;;;5.50;49.13
72086;BME280;64750;52.134;5.424;2023-02-28T12:43:55;103349.19;;;5.58;48.81
72086;BME280;64750;52.134;5.424;2023-02-28T12:46:36;103347.47;;;5.61;47.65
72086;BME280;64750;52.134;5.424;2023-02-28T12:49:09;103337.94;;;5.64;46.03
72086;BME280;64750;52.134;5.424;2023-02-28T12:51:37;103342.25;;;5.61;47.61
72086;BME280;64750;52.134;5.424;2023-02-28T12:54:21;103330.06;;;5.61;47.17
72086;BME280;64750;52.134;5.424;2023-02-28T12:59:57;103333.56;;;5.58;48.56
72086;BME280;64750;52.134;5.424;2023-02-28T13:05:08;103324.84;;;5.63;47.92
72086;BME280;64750;52.134;5.424;2023-02-28T13:07:53;103310.09;;;5.62;48.34
72086;BME280;64750;52.134;5.424;2023-02-28T13:10:38;103314.41;;;5.63;48.34
72086;BME280;64750;52.134;5.424;2023-02-28T13:13:05;103311.81;;;5.67;47.18
72086;BME280;64750;52.134;5.424;2023-02-28T13:15:31;103310.94;;;5.70;47.87
72086;BME280;64750;52.134;5.424;2023-02-28T13:18:01;103313.56;;;5.74;47.22
72086;BME280;64750;52.134;5.424;2023-02-28T13:20:36;103318.81;;;5.73;45.61
72086;BME280;64750;52.134;5.424;2023-02-28T13:23:03;103317.03;;;5.73;45.24
72086;BME280;64750;52.134;5.424;2023-02-28T13:28:02;103306.63;;;5.72;46.82
72086;BME280;64750;52.134;5.424;2023-02-28T13:36:25;103304.00;;;5.78;45.57
72086;BME280;64750;52.134;5.424;2023-02-28T13:38:55;103301.38;;;5.83;47.17
72086;BME280;64750;52.134;5.424;2023-02-28T13:52:16;103287.44;;;5.91;45.95
72086;BME280;64750;52.134;5.424;2023-02-28T14:03:15;103277.88;;;6.00;47.37
72086;BME280;64750;52.134;5.424;2023-02-28T14:05:45;103280.50;;;5.98;46.34
72086;BME280;64750;52.134;5.424;2023-02-28T14:08:18;103274.41;;;5.96;46.70
72086;BME280;64750;52.134;5.424;2023-02-28T14:10:49;103277.00;;;5.98;47.46
72086;BME280;64750;52.134;5.424;2023-02-28T14:13:49;103270.06;;;5.98;46.99
72086;BME280;64750;52.134;5.424;2023-02-28T14:16:20;103269.19;;;6.01;46.17
72086;BME280;64750;52.134;5.424;2023-02-28T14:18:51;103270.97;;;5.99;45.44
72086;BME280;64750;52.134;5.424;2023-02-28T14:21:22;103266.56;;;5.93;45.73
72086;BME280;64750;52.134;5.424;2023-02-28T14:29:36;103263.97;;;5.84;45.39
72086;BME280;64750;52.134;5.424;2023-02-28T14:37:52;103250.03;;;5.88;45.53
72086;BME280;64750;52.134;5.424;2023-02-28T14:40:28;103263.97;;;5.87;46.27
72086;BME280;64750;52.134;5.424;2023-02-28T14:42:58;103257.00;;;5.89;46.21
72086;BME280;64750;52.134;5.424;2023-02-28T14:45:35;103257.00;;;5.87;46.06
72086;BME280;64750;52.134;5.424;2023-02-28T14:48:04;103257.00;;;5.90;46.86
72086;BME280;64750;52.134;5.424;2023-02-28T14:50:36;103250.03;;;5.89;46.35
72086;BME280;64750;52.134;5.424;2023-02-28T14:53:06;103249.19;;;5.94;46.38
72086;BME280;64750;52.134;5.424;2023-02-28T14:55:44;103250.91;;;5.95;47.20
72086;BME280;64750;52.134;5.424;2023-02-28T14:58:32;103250.91;;;5.98;47.77
72086;BME280;64750;52.134;5.424;2023-02-28T15:01:01;103255.28;;;5.99;47.43
72086;BME280;64750;52.134;5.424;2023-02-28T15:03:38;103255.28;;;6.00;47.04
72086;BME280;64750;52.134;5.424;2023-02-28T15:06:16;103249.16;;;5.95;45.48
72086;BME280;64750;52.134;5.424;2023-02-28T15:08:44;103251.78;;;5.92;44.78
72086;BME280;64750;52.134;5.424;2023-02-28T15:11:16;103255.25;;;5.89;45.34
72086;BME280;64750;52.134;5.424;2023-02-28T15:13:47;103256.13;;;5.90;45.35
72086;BME280;64750;52.134;5.424;2023-02-28T15:16:31;103250.03;;;5.88;45.77